Résultats

La Travers´hyères 2017 7ème édition
La travers'hyères 5500 m palmes (avec sous sans combi)

5.5 Km
10/09/2017 à 08:00:00 - Hyères (83)
52 arrivant(e)s.





Place▲ Temps Dossard Nom Prenom Categ #Categ Sexe #Sexe Club Vit Moy Diplôme Partager
1 01:11:40 784 KUPCZAK STAN TCM 1 M 1 CPPF 4.60
2 01:14:57 781 GUERIN NATHALIE TCF 1 F 1 COTE BLEUE PASSION 4.40
3 01:16:14 793 MORIN VALERIE TCF 2 F 2 CSAKB 4.33
4 01:18:31 809 THOMAS MATHIEU TCM 2 M 2 AS CACHALOTS 4.20
5 01:19:10 789 MATTIO PATRICE TCM 3 M 3 CAAP 4.17
6 01:22:32 752 BARDEL THOMAS TCM 4 M 4 LES PLAISIRS DE LA MER 4.00
7 01:23:08 777 FRESCURAT MARIE-LUCE TCF 3 F 3 LES HYDROS ANNECY TRIATHLON 3.97
8 01:23:13 758 BOURGEOIS ROBIN TCM 5 M 5 COTE BLEUE PASSION-ASM 3.97
9 01:24:37 796 NOVELLI GERARD TCM 6 M 6 CAAP 3.90
10 01:28:22 755 BEHRENS JEAN-CHRISTOPHE TCM 7 M 7 COTE BLEUE PASSION 3.73
11 01:30:20 794 NADEAU PIERRE-YVES TCM 8 M 8 PAN 3.65
12 01:30:55 815 WALCZAK DELPHINE TCF 4 F 4 CAAP 3.63
13 01:31:01 778 GALLART JULIETTE TCF 5 F 5 3.63
14 01:31:02 798 RAFE REGIS TCM 9 M 9 AVIGNON LE PONTET TRIATHLON 3.63
15 01:31:43 757 BOERI MARC TCM 10 M 10 CSMS PLONGEE 3.60
16 01:32:32 772 DUPUCH ALEXANDRE TCM 11 M 11 TEAM HUM-HUM 3.57
17 01:32:55 767 DAVID STEPHANE TCM 12 M 12 3.55
18 01:33:16 804 ROSSI MIRIA TCF 6 F 6 CAAP 3.54
19 01:36:14 802 ROC GERMAIN TCM 13 M 13 3.43
20 01:36:40 808 SERRU LAURENT TCM 14 M 14 3.41
21 01:37:06 812 VARNIER LAURE TCF 7 F 7 LES PLAISIRS DE LA MER 3.40
22 01:37:36 765 CASARES JEAN-LUC TCM 15 M 15 3.38
23 01:37:39 806 SABY PIERRE TCM 16 M 16 CASC 3.38
24 01:38:13 783 KEMPYNCK MICKAEL TCM 17 M 17 PARIS AQUATIQUE 3.36
25 01:38:19 754 BEGUIN PIERRE TCM 18 M 18 3.36
26 01:38:53 768 DELABY AGNES TCF 8 F 8 LES PLAISIRS DE LA MER 3.34
27 01:40:09 810 TIFFON STEPHANIE TCF 9 F 9 CCESMF 3.30
28 01:40:28 782 GUILLEMOT FRANCOIS TCM 19 M 19 HUM HUM TEAM 3.28
29 01:41:09 771 DOMINICI ANAIS TCF 10 F 10 GRASM 3.26
30 01:41:27 799 REUTENAUER VIRGINIE TCF 11 F 11 3.25
31 01:41:41 795 NOEL CORENTIN JM 1 M 20 AS CACHALOTS 3.25
32 01:42:03 788 MARSAN CAROLINE TCF 12 F 12 HYERES HOCKEY SUBAQUATIQUE 3.23
33 01:42:31 776 FLORES GUILLEM TCM 20 M 21 SP NBE 3.22
34 01:42:50 761 BUFFIERE GILLES TCM 21 M 22 COTE BLEUE PASSION 3.21
35 01:42:57 759 BOURNONVILLE KERIM TCM 22 M 23 VOLKSWAGEN 3.21
36 01:43:19 773 DUPUY STEPHANIE TCF 13 F 13 3.19
37 01:44:17 774 FARRUGGIA ANNE TCF 14 F 14 CASC 3.16
38 01:44:25 775 FERRY MARTINE TCF 15 F 15 CSMS PLONGEE 3.16
39 01:45:29 753 BAUD CLAUDE TCM 23 M 24 CSMS PLONGEE 3.13
40 01:46:51 770 DOCHE-DE-LAQUINTANE FREDERIC TCM 24 M 25 3.09
41 01:47:36 803 N:Anonyme 803 P:Anonyme 803 TCF 16 F 16 CSMS PLONGEE 3.07
42 01:47:57 769 DELHAISE ESTELLE TCF 17 F 17 ASPTT TOULON 3.06
43 01:50:10 805 SABY MARTINE TCF 18 F 18 CASC 3.00
44 01:50:43 791 MICHAUX HERVE TCM 25 M 26 CAP GARONNE 2.98
45 01:50:46 813 VAUCHEY MARC TCM 26 M 27 AMSS 2.98
46 01:59:24 751 ANDREINI JACKIE TCF 19 F 19 CSMS PLONGE 2.76
47 01:59:40 807 SANTOS-LISBOA AURELIEN TCM 27 M 28 2.76
48 02:02:12 763 CALATRAVA CYRIL TCM 28 M 29 2.70
49 02:04:35 766 COUTERRI STEPHANE TCM 29 M 30 2.65
50 02:07:13 811 VANESSE LAURENT TCM 30 M 31 2.59
51 02:18:04 785 LAMBERT FRANCK TCM 31 M 32 PARIS AQUATIQUE 2.39
52 02:39:29 762 BUKIET YVES TCM 32 M 33 2.07